Highland City, Florida
Current Conditions -  °F | °C
As of 12:50 PM on Friday 31 Oct 2014 (Local Time) from KBOW Reporting Station
Few Clouds Few Clouds  
Wind Chill: 73°   Ceiling: Unl
Heat Index: 73°   Visibility: 10mi
Dew Point: 52°   Wind: 10mph
Humidity: 47%   Direction: 290°WNW
Pressure: 29.87"   Gusts: NA
Location:  27.97°N, 81.88°W
Report Text: KBOW 311650Z 29009KT 10SM FEW050 23/11 A2987
Loading
Personal Weather Stations






























Interactive Weather Map New forecast layout! Learn more

10-Day Weather Forecast

Advertisements
Track Severe Weather on mobile